Lehmann Sound — V2EM3 — position and weather

sailwx.info

Track history (hours):
 
Tides and Currents Weather Stations Pressure Air Temp Water Temp Dewpoint Dewpoint Depression Visibility Wind Speed Wind Dir Waves Ship Positions

Lehmann Sound

Last reported at 2015-May-29 13:34 UTC. Time now 2015-May-29 14:20 UTC.
Position N 51°50' E 004°33'.

Length 90 m; draft 3.7 m.

Type: Cargo ship. MMSI: 305476000.

Date/timePositionNaut miles runAvg speedWind from/ knotsBaromVisibWave heightAir tempDewpointWater temp
2015-May-29 13:34N 51°50' E 004°33'8 7.6
2015-May-29 12:33N 51°43' E 004°37'2 1.6
2015-May-29 11:30N 51°41' E 004°36'0 0.0
2015-May-29 10:33N 51°41' E 004°36'0 0.0
2015-May-29 09:30N 51°41' E 004°36'0 0.0
2015-May-29 08:24N 51°41' E 004°36'0 0.0
2015-May-29 07:33N 51°41' E 004°36'0 0.0
2015-May-29 06:30N 51°41' E 004°36'0 0.0
2015-May-29 05:30N 51°41' E 004°36'0 0.0
2015-May-29 04:24N 51°41' E 004°36'0 0.0
2015-May-29 03:30N 51°41' E 004°36'0 0.0
2015-May-29 02:24N 51°41' E 004°36'0 0.0
2015-May-29 01:30N 51°41' E 004°36'0 0.0
2015-May-29 00:30N 51°41' E 004°36'0 0.0
2015-May-28 23:30N 51°41' E 004°36'0 0.0
2015-May-28 22:30N 51°41' E 004°36'0 0.0
2015-May-28 21:24N 51°41' E 004°36'0 0.0
2015-May-28 20:26N 51°41' E 004°36'0 0.0
2015-May-28 19:26N 51°41' E 004°36'0 0.0
2015-May-28 17:23N 51°41' E 004°36'0 0.0
2015-May-28 14:29N 51°41' E 004°36'0 0.0
2015-May-28 13:32N 51°41' E 004°36'0 0.0
2015-May-28 12:29N 51°41' E 004°36'0 0.0
2015-May-28 11:29N 51°41' E 004°36'0 0.0
2015-May-28 10:29N 51°41' E 004°36'0 0.0
2015-May-28 09:29N 51°41' E 004°36'0 0.0
2015-May-28 08:29N 51°41' E 004°36'0 0.0
2015-May-28 07:29N 51°41' E 004°36'0 0.0
2015-May-28 06:29N 51°41' E 004°36'0 0.0
2015-May-28 05:29N 51°41' E 004°36'0 0.0
2015-May-28 04:32N 51°41' E 004°36'0 0.0
2015-May-28 03:29N 51°41' E 004°36'0 0.0
2015-May-28 02:29N 51°41' E 004°36'0 0.0
2015-May-28 01:29N 51°41' E 004°36'0 0.0
2015-May-28 00:29N 51°41' E 004°36'0 0.0
2015-May-27 23:29N 51°41' E 004°36'0 0.0
2015-May-27 22:29N 51°41' E 004°36'0 0.0
2015-May-27 21:29N 51°41' E 004°36'0 0.0
2015-May-27 20:29N 51°41' E 004°36'0 0.0
2015-May-27 19:26N 51°41' E 004°36'0 0.0
2015-May-27 18:29N 51°41' E 004°36'0 0.0
2015-May-27 17:24N 51°41' E 004°36'4 4.9
2015-May-27 16:34N 51°45' E 004°38'6 6.5
2015-May-27 15:33N 51°50' E 004°31'7 7.2
2015-May-27 14:33N 51°52' E 004°20'6 6.3
2015-May-27 13:33N 51°56' E 004°12'8 8.2
2015-May-27 12:33N 51°60' E 003°60'9 9.1
2015-May-27 11:33N 52°04' E 003°46'9 9.2
2015-May-27 10:33N 52°13' E 003°46'11 9.1
2015-May-27 09:24N 52°23' E 003°48'51 9.7
2015-May-27 04:09N 53°10' E 004°23'810.5
2015-May-27 03:25N 53°17' E 004°29'1010.2
2015-May-27 02:27N 53°26' E 004°34'9 9.7
2015-May-27 01:33N 53°34' E 004°38'10 9.7
2015-May-27 00:30N 53°44' E 004°43'10 9.9
2015-May-26 23:31N 53°53' E 004°47'10 9.9
2015-May-26 22:31N 54°03' E 004°53'1010.0
2015-May-26 21:33N 54°12' E 004°58'287 8.9
2015-May-25 13:25N 57°49' E 010°35'8 6.2
2015-May-25 12:06N 57°43' E 010°46'47 7.1
2015-May-25 05:31N 56°58' E 010°20'9 9.6
2015-May-25 04:33N 57°03' E 010°05'4 4.0
2015-May-25 03:33N 57°04' E 009°58'0 0.0
2015-May-25 02:33N 57°04' E 009°58'0 0.0
2015-May-25 01:33N 57°04' E 009°58'0 0.0
2015-May-25 00:33N 57°04' E 009°58'0 0.0
2015-May-24 23:33N 57°04' E 009°58'0 0.0
2015-May-24 22:33N 57°04' E 009°58'0 0.0
2015-May-24 21:33N 57°04' E 009°58'0 0.0
2015-May-24 20:33N 57°04' E 009°58'0 0.0
2015-May-24 19:33N 57°04' E 009°58'0 0.0
2015-May-24 18:33N 57°04' E 009°58'0 0.0
2015-May-24 17:33N 57°04' E 009°58'0 0.0
2015-May-24 16:33N 57°04' E 009°58'0 0.0
2015-May-24 15:33N 57°04' E 009°58'0 0.0
2015-May-24 14:33N 57°04' E 009°58'0 0.0
2015-May-24 13:33N 57°04' E 009°58'0 0.0
2015-May-24 12:33N 57°04' E 009°58'0 0.0
2015-May-24 11:33N 57°04' E 009°58'0 0.0
2015-May-24 10:33N 57°04' E 009°58'0 0.0
2015-May-24 09:33N 57°04' E 009°58'0 0.0
2015-May-24 08:33N 57°04' E 009°58'0 0.0
2015-May-24 07:33N 57°04' E 009°58'0 0.0
2015-May-24 06:30N 57°04' E 009°58'0 0.0
2015-May-24 05:33N 57°04' E 009°58'0 0.2
2015-May-24 04:33N 57°04' E 009°58'0 0.0
2015-May-24 03:33N 57°04' E 009°58'0 0.0
2015-May-24 02:32N 57°04' E 009°58'0 0.0
2015-May-24 01:32N 57°04' E 009°58'0 0.0
2015-May-24 00:32N 57°04' E 009°58'0 0.0
2015-May-23 23:32N 57°04' E 009°58'0 0.0
2015-May-23 22:32N 57°04' E 009°58'0 0.0
2015-May-23 21:29N 57°04' E 009°58'0 0.0
2015-May-23 20:32N 57°04' E 009°58'0 0.0
2015-May-23 19:32N 57°04' E 009°58'0 0.0
2015-May-23 18:32N 57°04' E 009°58'0 0.0
2015-May-23 17:32N 57°04' E 009°58'0 0.0
2015-May-23 16:29N 57°04' E 009°58'0 0.0
2015-May-23 15:32N 57°04' E 009°58'0 0.0
2015-May-23 14:32N 57°04' E 009°58'0 0.0
2015-May-23 13:32N 57°04' E 009°58'0 0.0
2015-May-23 12:32N 57°04' E 009°58'0 0.0
2015-May-23 11:29N 57°04' E 009°58'0 0.0
2015-May-23 10:32N 57°04' E 009°58'0 0.0
2015-May-23 09:32N 57°04' E 009°58'0 0.0
2015-May-23 08:32N 57°04' E 009°58'0 0.0
2015-May-23 07:29N 57°04' E 009°58'0 0.0
2015-May-23 06:32N 57°04' E 009°58'0 0.0
2015-May-23 05:32N 57°04' E 009°58'0 0.0
2015-May-23 04:32N 57°04' E 009°58'0 0.0
2015-May-23 03:32N 57°04' E 009°58'0 0.0
2015-May-23 02:32N 57°04' E 009°58'0 0.0
2015-May-23 01:32N 57°04' E 009°58'0 0.0
2015-May-23 00:32N 57°04' E 009°58'0 0.0
2015-May-22 23:32N 57°04' E 009°58'0 0.0
2015-May-22 22:32N 57°04' E 009°58'0 0.0
2015-May-22 21:32N 57°04' E 009°58'0 0.0
2015-May-22 20:32N 57°04' E 009°58'0 0.0
2015-May-22 19:32N 57°04' E 009°58'0 0.0
2015-May-22 18:32N 57°04' E 009°58'0 0.0
2015-May-22 17:29N 57°04' E 009°58'0 0.0
2015-May-22 16:32N 57°04' E 009°58'0 0.0
2015-May-22 15:31N 57°04' E 009°58'0 0.0
2015-May-22 14:31N 57°04' E 009°58'0 0.0
2015-May-22 13:31N 57°04' E 009°58'0 0.0
2015-May-22 12:31N 57°04' E 009°58'0 0.0
2015-May-22 11:31N 57°04' E 009°58'0 0.0
2015-May-22 10:31N 57°04' E 009°58'0 0.0
2015-May-22 09:31N 57°04' E 009°58'0 0.0
2015-May-22 08:31N 57°04' E 009°58'0 0.0
2015-May-22 07:31N 57°04' E 009°58'0 0.0
2015-May-22 06:31N 57°04' E 009°58'0 0.0
2015-May-22 05:31N 57°04' E 009°58'0 0.0
2015-May-22 04:31N 57°04' E 009°58'0 0.0
2015-May-22 03:31N 57°04' E 009°58'0 0.0
2015-May-22 02:31N 57°04' E 009°58'0 0.0
2015-May-22 01:31N 57°04' E 009°58'0 0.0
2015-May-22 00:31N 57°04' E 009°58'0 0.0
2015-May-21 23:22N 57°04' E 009°58'0 0.0
2015-May-21 22:31N 57°04' E 009°58'0 0.0
2015-May-21 21:31N 57°04' E 009°58'0 0.0
2015-May-21 20:31N 57°04' E 009°58'6 6.1
2015-May-21 19:33N 57°01' E 010°08'9 8.9
2015-May-21 18:33N 56°58' E 010°23'30 9.9
2015-May-21 15:32N 56°51' E 011°16'10 9.9
2015-May-21 14:33N 56°51' E 011°34'10 9.8
2015-May-21 13:33N 56°50' E 011°52'1010.0
2015-May-21 12:33N 56°49' E 012°10'1010.2
2015-May-21 11:33N 56°43' E 012°25'1010.4
2015-May-21 10:33N 56°38' E 012°41'6 1.4
2015-May-21 06:10N 56°39' E 012°51'0 0.0
2015-May-21 05:28N 56°39' E 012°51'0 0.0
2015-May-21 04:10N 56°39' E 012°51'0 0.0
2015-May-21 03:22N 56°39' E 012°51'0 0.0
2015-May-21 02:28N 56°39' E 012°51'0 0.0
2015-May-21 01:22N 56°39' E 012°51'0 0.0
2015-May-21 00:28N 56°39' E 012°51'0 0.0
2015-May-20 23:28N 56°39' E 012°51'0 0.0
2015-May-20 22:22N 56°39' E 012°51'0 0.0
2015-May-20 20:04N 56°39' E 012°51'0 0.0
2015-May-20 12:09N 56°39' E 012°51'0 0.0
2015-May-20 10:27N 56°39' E 012°51'0 0.0
2015-May-20 05:33N 56°39' E 012°51'  
Track history (hours):
 
Tides and Currents Weather Stations Pressure Air Temp Water Temp Dewpoint Dewpoint Depression Visibility Wind Speed Wind Dir Waves Ship Positions

Lehmann Sound

Last reported at 2015-May-29 13:34 UTC. Time now 2015-May-29 14:20 UTC.
Position N 51°50' E 004°33'.

Length 90 m; draft 3.7 m.

Type: Cargo ship. MMSI: 305476000.

Date/timePositionNaut miles runAvg speedWind from/ knotsBaromVisibWave heightAir tempDewpointWater temp
2015-May-29 13:34N 51°50' E 004°33'8 7.6
2015-May-29 12:33N 51°43' E 004°37'2 1.6
2015-May-29 11:30N 51°41' E 004°36'0 0.0
2015-May-29 10:33N 51°41' E 004°36'0 0.0
2015-May-29 09:30N 51°41' E 004°36'0 0.0
2015-May-29 08:24N 51°41' E 004°36'0 0.0
2015-May-29 07:33N 51°41' E 004°36'0 0.0
2015-May-29 06:30N 51°41' E 004°36'0 0.0
2015-May-29 05:30N 51°41' E 004°36'0 0.0
2015-May-29 04:24N 51°41' E 004°36'0 0.0
2015-May-29 03:30N 51°41' E 004°36'0 0.0
2015-May-29 02:24N 51°41' E 004°36'0 0.0
2015-May-29 01:30N 51°41' E 004°36'0 0.0
2015-May-29 00:30N 51°41' E 004°36'0 0.0
2015-May-28 23:30N 51°41' E 004°36'0 0.0
2015-May-28 22:30N 51°41' E 004°36'0 0.0
2015-May-28 21:24N 51°41' E 004°36'0 0.0
2015-May-28 20:26N 51°41' E 004°36'0 0.0
2015-May-28 19:26N 51°41' E 004°36'0 0.0
2015-May-28 17:23N 51°41' E 004°36'0 0.0
2015-May-28 14:29N 51°41' E 004°36'0 0.0
2015-May-28 13:32N 51°41' E 004°36'0 0.0
2015-May-28 12:29N 51°41' E 004°36'0 0.0
2015-May-28 11:29N 51°41' E 004°36'0 0.0
2015-May-28 10:29N 51°41' E 004°36'0 0.0
2015-May-28 09:29N 51°41' E 004°36'0 0.0
2015-May-28 08:29N 51°41' E 004°36'0 0.0
2015-May-28 07:29N 51°41' E 004°36'0 0.0
2015-May-28 06:29N 51°41' E 004°36'0 0.0
2015-May-28 05:29N 51°41' E 004°36'0 0.0
2015-May-28 04:32N 51°41' E 004°36'0 0.0
2015-May-28 03:29N 51°41' E 004°36'0 0.0
2015-May-28 02:29N 51°41' E 004°36'0 0.0
2015-May-28 01:29N 51°41' E 004°36'0 0.0
2015-May-28 00:29N 51°41' E 004°36'0 0.0
2015-May-27 23:29N 51°41' E 004°36'0 0.0
2015-May-27 22:29N 51°41' E 004°36'0 0.0
2015-May-27 21:29N 51°41' E 004°36'0 0.0
2015-May-27 20:29N 51°41' E 004°36'0 0.0
2015-May-27 19:26N 51°41' E 004°36'0 0.0
2015-May-27 18:29N 51°41' E 004°36'0 0.0
2015-May-27 17:24N 51°41' E 004°36'4 4.9
2015-May-27 16:34N 51°45' E 004°38'6 6.5
2015-May-27 15:33N 51°50' E 004°31'7 7.2
2015-May-27 14:33N 51°52' E 004°20'6 6.3
2015-May-27 13:33N 51°56' E 004°12'8 8.2
2015-May-27 12:33N 51°60' E 003°60'9 9.1
2015-May-27 11:33N 52°04' E 003°46'9 9.2
2015-May-27 10:33N 52°13' E 003°46'11 9.1
2015-May-27 09:24N 52°23' E 003°48'51 9.7
2015-May-27 04:09N 53°10' E 004°23'810.5
2015-May-27 03:25N 53°17' E 004°29'1010.2
2015-May-27 02:27N 53°26' E 004°34'9 9.7
2015-May-27 01:33N 53°34' E 004°38'10 9.7
2015-May-27 00:30N 53°44' E 004°43'10 9.9
2015-May-26 23:31N 53°53' E 004°47'10 9.9
2015-May-26 22:31N 54°03' E 004°53'1010.0
2015-May-26 21:33N 54°12' E 004°58'287 8.9
2015-May-25 13:25N 57°49' E 010°35'8 6.2
2015-May-25 12:06N 57°43' E 010°46'47 7.1
2015-May-25 05:31N 56°58' E 010°20'9 9.6
2015-May-25 04:33N 57°03' E 010°05'4 4.0
2015-May-25 03:33N 57°04' E 009°58'0 0.0
2015-May-25 02:33N 57°04' E 009°58'0 0.0
2015-May-25 01:33N 57°04' E 009°58'0 0.0
2015-May-25 00:33N 57°04' E 009°58'0 0.0
2015-May-24 23:33N 57°04' E 009°58'0 0.0
2015-May-24 22:33N 57°04' E 009°58'0 0.0
2015-May-24 21:33N 57°04' E 009°58'0 0.0
2015-May-24 20:33N 57°04' E 009°58'0 0.0
2015-May-24 19:33N 57°04' E 009°58'0 0.0
2015-May-24 18:33N 57°04' E 009°58'0 0.0
2015-May-24 17:33N 57°04' E 009°58'0 0.0
2015-May-24 16:33N 57°04' E 009°58'0 0.0
2015-May-24 15:33N 57°04' E 009°58'0 0.0
2015-May-24 14:33N 57°04' E 009°58'0 0.0
2015-May-24 13:33N 57°04' E 009°58'0 0.0
2015-May-24 12:33N 57°04' E 009°58'0 0.0
2015-May-24 11:33N 57°04' E 009°58'0 0.0
2015-May-24 10:33N 57°04' E 009°58'0 0.0
2015-May-24 09:33N 57°04' E 009°58'0 0.0
2015-May-24 08:33N 57°04' E 009°58'0 0.0
2015-May-24 07:33N 57°04' E 009°58'0 0.0
2015-May-24 06:30N 57°04' E 009°58'0 0.0
2015-May-24 05:33N 57°04' E 009°58'0 0.2
2015-May-24 04:33N 57°04' E 009°58'0 0.0
2015-May-24 03:33N 57°04' E 009°58'0 0.0
2015-May-24 02:32N 57°04' E 009°58'0 0.0
2015-May-24 01:32N 57°04' E 009°58'0 0.0
2015-May-24 00:32N 57°04' E 009°58'0 0.0
2015-May-23 23:32N 57°04' E 009°58'0 0.0
2015-May-23 22:32N 57°04' E 009°58'0 0.0
2015-May-23 21:29N 57°04' E 009°58'0 0.0
2015-May-23 20:32N 57°04' E 009°58'0 0.0
2015-May-23 19:32N 57°04' E 009°58'0 0.0
2015-May-23 18:32N 57°04' E 009°58'0 0.0
2015-May-23 17:32N 57°04' E 009°58'0 0.0
2015-May-23 16:29N 57°04' E 009°58'0 0.0
2015-May-23 15:32N 57°04' E 009°58'0 0.0
2015-May-23 14:32N 57°04' E 009°58'0 0.0
2015-May-23 13:32N 57°04' E 009°58'0 0.0
2015-May-23 12:32N 57°04' E 009°58'0 0.0
2015-May-23 11:29N 57°04' E 009°58'0 0.0
2015-May-23 10:32N 57°04' E 009°58'0 0.0
2015-May-23 09:32N 57°04' E 009°58'0 0.0
2015-May-23 08:32N 57°04' E 009°58'0 0.0
2015-May-23 07:29N 57°04' E 009°58'0 0.0
2015-May-23 06:32N 57°04' E 009°58'0 0.0
2015-May-23 05:32N 57°04' E 009°58'0 0.0
2015-May-23 04:32N 57°04' E 009°58'0 0.0
2015-May-23 03:32N 57°04' E 009°58'0 0.0
2015-May-23 02:32N 57°04' E 009°58'0 0.0
2015-May-23 01:32N 57°04' E 009°58'0 0.0
2015-May-23 00:32N 57°04' E 009°58'0 0.0
2015-May-22 23:32N 57°04' E 009°58'0 0.0
2015-May-22 22:32N 57°04' E 009°58'0 0.0
2015-May-22 21:32N 57°04' E 009°58'0 0.0
2015-May-22 20:32N 57°04' E 009°58'0 0.0
2015-May-22 19:32N 57°04' E 009°58'0 0.0
2015-May-22 18:32N 57°04' E 009°58'0 0.0
2015-May-22 17:29N 57°04' E 009°58'0 0.0
2015-May-22 16:32N 57°04' E 009°58'0 0.0
2015-May-22 15:31N 57°04' E 009°58'0 0.0
2015-May-22 14:31N 57°04' E 009°58'0 0.0
2015-May-22 13:31N 57°04' E 009°58'0 0.0
2015-May-22 12:31N 57°04' E 009°58'0 0.0
2015-May-22 11:31N 57°04' E 009°58'0 0.0
2015-May-22 10:31N 57°04' E 009°58'0 0.0
2015-May-22 09:31N 57°04' E 009°58'0 0.0
2015-May-22 08:31N 57°04' E 009°58'0 0.0
2015-May-22 07:31N 57°04' E 009°58'0 0.0
2015-May-22 06:31N 57°04' E 009°58'0 0.0
2015-May-22 05:31N 57°04' E 009°58'0 0.0
2015-May-22 04:31N 57°04' E 009°58'0 0.0
2015-May-22 03:31N 57°04' E 009°58'0 0.0
2015-May-22 02:31N 57°04' E 009°58'0 0.0
2015-May-22 01:31N 57°04' E 009°58'0 0.0
2015-May-22 00:31N 57°04' E 009°58'0 0.0
2015-May-21 23:22N 57°04' E 009°58'0 0.0
2015-May-21 22:31N 57°04' E 009°58'0 0.0
2015-May-21 21:31N 57°04' E 009°58'0 0.0
2015-May-21 20:31N 57°04' E 009°58'6 6.1
2015-May-21 19:33N 57°01' E 010°08'9 8.9
2015-May-21 18:33N 56°58' E 010°23'30 9.9
2015-May-21 15:32N 56°51' E 011°16'10 9.9
2015-May-21 14:33N 56°51' E 011°34'10 9.8
2015-May-21 13:33N 56°50' E 011°52'1010.0
2015-May-21 12:33N 56°49' E 012°10'1010.2
2015-May-21 11:33N 56°43' E 012°25'1010.4
2015-May-21 10:33N 56°38' E 012°41'6 1.4
2015-May-21 06:10N 56°39' E 012°51'0 0.0
2015-May-21 05:28N 56°39' E 012°51'0 0.0
2015-May-21 04:10N 56°39' E 012°51'0 0.0
2015-May-21 03:22N 56°39' E 012°51'0 0.0
2015-May-21 02:28N 56°39' E 012°51'0 0.0
2015-May-21 01:22N 56°39' E 012°51'0 0.0
2015-May-21 00:28N 56°39' E 012°51'0 0.0
2015-May-20 23:28N 56°39' E 012°51'0 0.0
2015-May-20 22:22N 56°39' E 012°51'0 0.0
2015-May-20 20:04N 56°39' E 012°51'0 0.0
2015-May-20 12:09N 56°39' E 012°51'0 0.0
2015-May-20 10:27N 56°39' E 012°51'0 0.0
2015-May-20 05:33N 56°39' E 012°51'  

Dump ship's entire track history